Time;durP1;ratioP1;P1;durP2;ratioP2;P2;SDS_P1;SDS_P2;PMS_P1;PMS_P2;Temp;Humidity;BMP_temperature;BMP_pressure;BME280_temperature;BME280_humidity;BME280_pressure;Samples;Min_cycle;Max_cycle;Signal;HPM_P1;HPM_P2
2023/05/03 00:00:54;;;;;;;15.68;7.65;;;;;;;;;;5007990;28;20688;-71
2023/05/03 00:03:22;;;;;;;21.42;10.90;;;;;;;;;;5008439;28;20498;-71
2023/05/03 00:05:48;;;;;;;22.48;11.30;;;;;;;;;;5008305;28;20018;-71
2023/05/03 00:08:15;;;;;;;18.02;6.20;;;;;;;;;;5008181;28;20030;-71
2023/05/03 00:10:41;;;;;;;12.10;5.18;;;;;;;;;;5006307;28;20036;-72
2023/05/03 00:13:07;;;;;;;4.63;2.88;;;;;;;;;;5007734;28;20040;-72
2023/05/03 00:15:33;;;;;;;7.18;3.72;;;;;;;;;;5007489;28;20032;-74
2023/05/03 00:17:59;;;;;;;6.97;3.08;;;;;;;;;;5007494;28;20612;-74
2023/05/03 00:20:26;;;;;;;11.85;4.15;;;;;;;;;;5007996;28;20498;-71
2023/05/03 00:22:52;;;;;;;7.07;4.63;;;;;;;;;;5007567;28;20033;-72
2023/05/03 00:25:18;;;;;;;12.75;5.10;;;;;;;;;;5005569;28;20108;-72
2023/05/03 00:27:44;;;;;;;7.88;3.35;;;;;;;;;;5007480;28;20482;-72
2023/05/03 00:30:10;;;;;;;8.95;3.60;;;;;;;;;;5007229;28;20026;-72
2023/05/03 00:32:36;;;;;;;7.60;4.45;;;;;;;;;;5007344;28;20033;-71
2023/05/03 00:35:03;;;;;;;5.38;3.40;;;;;;;;;;5007159;28;20475;-71
2023/05/03 00:37:29;;;;;;;8.02;3.50;;;;;;;;;;5008655;28;20037;-71
2023/05/03 00:39:56;;;;;;;10.80;4.80;;;;;;;;;;5009257;28;20524;-71
2023/05/03 00:42:22;;;;;;;8.50;5.20;;;;;;;;;;5010137;28;20045;-73
2023/05/03 00:44:49;;;;;;;8.80;5.28;;;;;;;;;;5010127;28;20076;-71
2023/05/03 00:47:15;;;;;;;7.72;4.63;;;;;;;;;;5010284;28;20045;-72
2023/05/03 00:49:42;;;;;;;9.10;4.50;;;;;;;;;;5010325;28;20386;-72
2023/05/03 00:52:09;;;;;;;7.13;3.30;;;;;;;;;;5009083;28;20577;-73
2023/05/03 00:54:35;;;;;;;4.88;2.70;;;;;;;;;;5010344;28;20033;-73
2023/05/03 00:57:01;;;;;;;4.57;2.78;;;;;;;;;;5009819;28;20018;-71
2023/05/03 00:59:28;;;;;;;7.47;4.40;;;;;;;;;;5009473;28;20654;-73
2023/05/03 01:01:54;;;;;;;7.22;4.00;;;;;;;;;;5007957;28;20103;-72
2023/05/03 01:04:21;;;;;;;6.28;3.40;;;;;;;;;;5005356;28;20076;-71
2023/05/03 01:07:03;;;;;;;9.25;3.22;;;;;;;;;;5006617;28;20072;-71
2023/05/03 01:09:48;;;;;;;8.30;2.70;;;;;;;;;;5006493;28;20040;-72
2023/05/03 01:12:19;;;;;;;6.57;2.17;;;;;;;;;;5005367;28;20038;-71
2023/05/03 01:14:48;;;;;;;5.38;2.45;;;;;;;;;;5009677;28;20076;-71
2023/05/03 01:17:14;;;;;;;4.90;2.78;;;;;;;;;;5009882;28;20040;-71
2023/05/03 01:19:45;;;;;;;5.05;2.80;;;;;;;;;;5008150;28;20487;-72
2023/05/03 01:22:17;;;;;;;6.32;3.00;;;;;;;;;;5009480;28;20037;-72
2023/05/03 01:24:47;;;;;;;7.00;2.70;;;;;;;;;;5009486;28;20489;-71
2023/05/03 01:27:13;;;;;;;14.85;3.67;;;;;;;;;;4991511;28;20054;-73
2023/05/03 01:29:39;;;;;;;3.75;2.60;;;;;;;;;;5007654;28;20017;-72
2023/05/03 01:32:08;;;;;;;4.90;2.00;;;;;;;;;;5009151;28;20612;-72
2023/05/03 01:34:34;;;;;;;6.90;2.85;;;;;;;;;;5009454;28;20026;-75
2023/05/03 01:37:02;;;;;;;8.93;2.90;;;;;;;;;;5008399;28;20021;-71
2023/05/03 01:39:48;;;;;;;8.43;2.75;;;;;;;;;;5009165;28;20053;-71
2023/05/03 01:42:15;;;;;;;4.80;2.78;;;;;;;;;;4994003;28;20038;-71
2023/05/03 01:44:42;;;;;;;7.80;2.72;;;;;;;;;;5009206;28;20720;-71
2023/05/03 01:47:08;;;;;;;5.28;2.65;;;;;;;;;;5008914;28;20018;-73
2023/05/03 01:49:34;;;;;;;8.90;3.20;;;;;;;;;;5009123;28;20029;-71
2023/05/03 01:52:00;;;;;;;7.18;2.67;;;;;;;;;;5007487;28;20117;-72
2023/05/03 01:54:27;;;;;;;6.43;2.60;;;;;;;;;;5009084;28;20034;-72
2023/05/03 01:56:53;;;;;;;5.93;3.25;;;;;;;;;;5009320;28;20383;-72
2023/05/03 01:59:19;;;;;;;7.35;3.92;;;;;;;;;;5007603;28;20042;-72
2023/05/03 02:01:45;;;;;;;8.63;2.70;;;;;;;;;;5009103;28;20022;-72
2023/05/03 02:04:11;;;;;;;5.50;3.00;;;;;;;;;;5008979;28;20018;-73
2023/05/03 02:06:37;;;;;;;10.27;3.00;;;;;;;;;;5008969;28;20029;-72
2023/05/03 02:09:03;;;;;;;6.18;2.42;;;;;;;;;;5008931;28;20021;-72
2023/05/03 02:11:30;;;;;;;5.75;2.80;;;;;;;;;;4989615;28;20677;-72
2023/05/03 02:13:56;;;;;;;6.15;2.95;;;;;;;;;;5008718;28;20085;-71
2023/05/03 02:16:22;;;;;;;9.40;2.65;;;;;;;;;;5008428;28;20177;-72
2023/05/03 02:18:48;;;;;;;6.68;3.35;;;;;;;;;;5008639;28;20040;-72
2023/05/03 02:21:15;;;;;;;6.53;2.60;;;;;;;;;;5007113;28;20100;-72
2023/05/03 02:23:41;;;;;;;5.75;2.38;;;;;;;;;;5008339;28;20026;-72
2023/05/03 02:26:07;;;;;;;6.20;2.92;;;;;;;;;;4990987;28;20054;-72
2023/05/03 02:28:34;;;;;;;7.32;2.90;;;;;;;;;;5008659;28;20026;-73
2023/05/03 02:31:00;;;;;;;10.95;2.95;;;;;;;;;;5005106;28;20110;-72
2023/05/03 02:33:26;;;;;;;6.38;3.05;;;;;;;;;;5005024;28;20426;-72
2023/05/03 02:35:52;;;;;;;7.60;3.22;;;;;;;;;;4997833;28;20026;-72
2023/05/03 02:38:18;;;;;;;6.78;2.78;;;;;;;;;;4998719;28;20111;-72
2023/05/03 02:40:44;;;;;;;6.63;2.97;;;;;;;;;;5000756;28;20033;-71
2023/05/03 02:43:10;;;;;;;9.10;3.65;;;;;;;;;;5004099;28;20036;-73
2023/05/03 02:45:37;;;;;;;12.38;3.47;;;;;;;;;;5000388;28;20028;-72
2023/05/03 02:48:03;;;;;;;8.90;2.80;;;;;;;;;;5004906;28;20111;-74
2023/05/03 02:50:30;;;;;;;6.35;3.15;;;;;;;;;;4998384;28;20018;-72
2023/05/03 02:52:56;;;;;;;8.05;2.72;;;;;;;;;;4998244;28;20482;-72
2023/05/03 02:55:22;;;;;;;7.15;2.60;;;;;;;;;;5000780;28;20033;-72
2023/05/03 02:57:48;;;;;;;6.93;2.33;;;;;;;;;;5000487;28;20069;-73
2023/05/03 03:00:15;;;;;;;13.10;2.78;;;;;;;;;;5000311;28;20104;-72
2023/05/03 03:02:41;;;;;;;9.80;2.83;;;;;;;;;;5001696;28;20018;-73
2023/05/03 03:05:08;;;;;;;8.80;2.58;;;;;;;;;;4993104;28;20112;-71
2023/05/03 03:07:34;;;;;;;8.93;3.33;;;;;;;;;;4997740;28;20022;-72
2023/05/03 03:10:00;;;;;;;6.15;2.55;;;;;;;;;;4992351;28;20084;-72
2023/05/03 03:12:27;;;;;;;3.55;2.33;;;;;;;;;;4998325;28;20060;-72
2023/05/03 03:14:54;;;;;;;7.07;2.38;;;;;;;;;;4988002;28;20022;-74
2023/05/03 03:17:20;;;;;;;8.40;2.30;;;;;;;;;;4997748;28;20018;-71
2023/05/03 03:19:46;;;;;;;5.03;2.40;;;;;;;;;;4996303;28;20529;-71
2023/05/03 03:22:12;;;;;;;5.47;2.25;;;;;;;;;;4990953;28;20033;-72
2023/05/03 03:24:38;;;;;;;6.97;2.20;;;;;;;;;;4998980;28;20018;-72
2023/05/03 03:27:04;;;;;;;4.28;2.15;;;;;;;;;;4994922;28;20027;-71
2023/05/03 03:29:32;;;;;;;4.32;2.38;;;;;;;;;;5002698;28;20022;-71
2023/05/03 03:31:58;;;;;;;5.32;2.60;;;;;;;;;;4994823;28;20152;-72
2023/05/03 03:34:24;;;;;;;5.72;2.45;;;;;;;;;;4999394;28;20060;-72
2023/05/03 03:36:51;;;;;;;7.60;2.65;;;;;;;;;;4995174;28;20425;-71
2023/05/03 03:39:17;;;;;;;8.00;2.40;;;;;;;;;;5000237;28;20497;-72
2023/05/03 03:41:43;;;;;;;5.75;2.10;;;;;;;;;;5000513;28;20044;-72
2023/05/03 03:44:09;;;;;;;6.50;2.30;;;;;;;;;;4995643;28;20032;-72
2023/05/03 03:46:35;;;;;;;6.43;2.22;;;;;;;;;;4996302;28;20164;-72
2023/05/03 03:49:02;;;;;;;7.78;2.25;;;;;;;;;;5001334;28;20027;-74
2023/05/03 03:51:28;;;;;;;8.38;3.08;;;;;;;;;;5001882;28;20125;-72
2023/05/03 03:53:54;;;;;;;5.88;2.40;;;;;;;;;;5003521;28;20032;-71
2023/05/03 03:56:20;;;;;;;4.50;2.30;;;;;;;;;;4993059;28;20019;-72
2023/05/03 03:58:47;;;;;;;10.18;2.45;;;;;;;;;;5001916;28;20057;-72
2023/05/03 04:01:13;;;;;;;10.68;2.92;;;;;;;;;;4992974;28;20104;-71
2023/05/03 04:03:39;;;;;;;9.13;3.00;;;;;;;;;;4997351;28;20093;-71
2023/05/03 04:06:06;;;;;;;7.88;2.70;;;;;;;;;;4994587;28;20040;-71
2023/05/03 04:08:32;;;;;;;6.68;2.85;;;;;;;;;;5000934;28;20026;-71
2023/05/03 04:10:58;;;;;;;5.97;2.28;;;;;;;;;;4990713;28;20945;-71
2023/05/03 04:13:24;;;;;;;9.43;3.47;;;;;;;;;;4999377;28;20652;-72
2023/05/03 04:15:54;;;;;;;6.43;2.92;;;;;;;;;;4990922;28;20584;-72
2023/05/03 04:18:21;;;;;;;7.63;2.80;;;;;;;;;;4997434;28;20060;-72
2023/05/03 04:20:48;;;;;;;9.05;2.75;;;;;;;;;;4990873;28;20018;-71
2023/05/03 04:23:14;;;;;;;6.22;2.85;;;;;;;;;;5003887;28;20036;-72
2023/05/03 04:25:45;;;;;;;6.20;3.17;;;;;;;;;;4989461;28;20029;-74
2023/05/03 04:28:15;;;;;;;11.45;3.35;;;;;;;;;;4993958;28;20017;-72
2023/05/03 04:30:46;;;;;;;7.63;3.28;;;;;;;;;;4994980;28;20030;-72
2023/05/03 04:33:12;;;;;;;5.88;3.30;;;;;;;;;;5002960;28;20030;-71
2023/05/03 04:35:39;;;;;;;6.07;2.75;;;;;;;;;;5000658;28;20491;-71
2023/05/03 04:38:05;;;;;;;9.93;2.83;;;;;;;;;;5001887;28;20033;-73
2023/05/03 04:40:31;;;;;;;9.55;3.03;;;;;;;;;;4995420;28;20087;-72
2023/05/03 04:42:57;;;;;;;10.63;3.13;;;;;;;;;;4997983;28;20088;-72
2023/05/03 04:45:24;;;;;;;8.77;3.20;;;;;;;;;;4999366;28;20541;-72
2023/05/03 04:47:50;;;;;;;3.90;2.58;;;;;;;;;;4997474;28;20088;-71
2023/05/03 04:50:16;;;;;;;7.22;3.13;;;;;;;;;;5000901;28;20602;-71
2023/05/03 04:52:42;;;;;;;8.63;2.88;;;;;;;;;;5002094;28;20065;-72
2023/05/03 04:55:09;;;;;;;5.70;2.72;;;;;;;;;;4994403;28;20483;-72
2023/05/03 04:57:35;;;;;;;8.73;2.90;;;;;;;;;;4997984;28;20030;-71
2023/05/03 05:00:01;;;;;;;8.02;2.85;;;;;;;;;;4996857;28;20669;-72
2023/05/03 05:02:28;;;;;;;6.72;2.55;;;;;;;;;;4998481;28;20841;-73
2023/05/03 05:04:54;;;;;;;7.30;2.00;;;;;;;;;;4998114;28;20033;-72
2023/05/03 05:07:20;;;;;;;3.35;1.75;;;;;;;;;;4996648;28;20025;-72
2023/05/03 05:09:46;;;;;;;4.55;1.92;;;;;;;;;;4988894;28;20030;-72
2023/05/03 05:12:12;;;;;;;5.60;2.00;;;;;;;;;;4987521;28;20044;-73
2023/05/03 05:14:38;;;;;;;7.00;2.13;;;;;;;;;;4998846;28;20481;-72
2023/05/03 05:17:04;;;;;;;15.70;3.55;;;;;;;;;;4986829;28;20625;-73
2023/05/03 05:19:31;;;;;;;14.23;3.50;;;;;;;;;;5000167;28;20112;-75
2023/05/03 05:21:57;;;;;;;6.32;2.80;;;;;;;;;;4984573;28;20197;-72
2023/05/03 05:24:23;;;;;;;11.02;3.00;;;;;;;;;;4998587;28;20022;-72
2023/05/03 05:26:49;;;;;;;9.70;3.67;;;;;;;;;;4987839;28;20080;-76
2023/05/03 05:29:15;;;;;;;7.47;3.72;;;;;;;;;;4983084;28;20015;-72
2023/05/03 05:31:41;;;;;;;7.05;3.10;;;;;;;;;;4998940;28;20117;-72
2023/05/03 05:34:08;;;;;;;8.43;3.75;;;;;;;;;;4998421;28;20034;-73
2023/05/03 05:36:34;;;;;;;11.05;2.88;;;;;;;;;;4999410;28;20104;-72
2023/05/03 05:39:00;;;;;;;7.22;3.08;;;;;;;;;;5002509;28;20178;-72
2023/05/03 05:41:26;;;;;;;11.70;3.05;;;;;;;;;;4994081;28;20631;-72
2023/05/03 05:43:52;;;;;;;8.07;2.63;;;;;;;;;;4999669;28;20025;-73
2023/05/03 05:46:20;;;;;;;8.27;2.92;;;;;;;;;;4994513;28;20029;-72
2023/05/03 05:48:46;;;;;;;9.50;2.22;;;;;;;;;;4999670;28;20025;-72
2023/05/03 05:51:12;;;;;;;5.75;2.58;;;;;;;;;;4992911;28;20053;-74
2023/05/03 05:53:38;;;;;;;13.43;2.70;;;;;;;;;;5000992;28;20021;-72
2023/05/03 05:56:05;;;;;;;8.88;2.38;;;;;;;;;;4995807;28;20026;-75
2023/05/03 05:58:31;;;;;;;7.68;2.50;;;;;;;;;;5000391;28;20022;-73
2023/05/03 06:01:00;;;;;;;7.32;2.22;;;;;;;;;;4997778;28;20722;-75
2023/05/03 06:03:26;;;;;;;4.90;2.17;;;;;;;;;;4980777;28;20038;-72
2023/05/03 06:05:53;;;;;;;5.80;2.50;;;;;;;;;;5000364;28;20026;-72
2023/05/03 06:08:19;;;;;;;10.00;2.92;;;;;;;;;;5002785;28;20561;-72
2023/05/03 06:10:45;;;;;;;3.88;2.50;;;;;;;;;;4997206;28;20490;-72
2023/05/03 06:13:11;;;;;;;6.30;2.60;;;;;;;;;;4997866;28;20494;-73
2023/05/03 06:15:37;;;;;;;7.07;2.50;;;;;;;;;;4995419;28;20030;-73
2023/05/03 06:18:03;;;;;;;9.48;2.40;;;;;;;;;;4996666;28;20517;-73
2023/05/03 06:20:30;;;;;;;6.40;2.88;;;;;;;;;;4996790;28;20118;-72
2023/05/03 06:22:56;;;;;;;7.13;2.72;;;;;;;;;;4981415;28;20561;-72
2023/05/03 06:25:22;;;;;;;4.15;2.38;;;;;;;;;;4997627;28;20537;-72
2023/05/03 06:27:48;;;;;;;7.55;2.22;;;;;;;;;;4999903;28;20203;-71
2023/05/03 06:30:15;;;;;;;8.25;2.58;;;;;;;;;;4978167;28;20072;-72
2023/05/03 06:32:42;;;;;;;8.07;3.13;;;;;;;;;;4999129;28;20482;-73
2023/05/03 06:35:08;;;;;;;5.53;2.40;;;;;;;;;;4991999;28;20113;-72
2023/05/03 06:37:37;;;;;;;9.88;3.33;;;;;;;;;;5003070;28;20026;-73
2023/05/03 06:40:05;;;;;;;10.15;5.32;;;;;;;;;;4993715;28;20085;-73
2023/05/03 06:42:31;;;;;;;10.95;5.47;;;;;;;;;;5001389;28;20478;-72
2023/05/03 06:44:57;;;;;;;8.40;4.60;;;;;;;;;;4994683;28;20033;-72
2023/05/03 06:47:24;;;;;;;10.40;6.68;;;;;;;;;;5000920;28;20029;-73
2023/05/03 06:49:50;;;;;;;14.20;7.13;;;;;;;;;;4995895;28;20022;-72
2023/05/03 06:52:17;;;;;;;12.30;6.72;;;;;;;;;;5003524;28;20037;-72
2023/05/03 06:54:43;;;;;;;12.32;7.70;;;;;;;;;;4998740;28;20029;-73
2023/05/03 06:57:09;;;;;;;8.93;5.38;;;;;;;;;;5001765;28;20034;-72
2023/05/03 06:59:36;;;;;;;9.98;7.75;;;;;;;;;;4996452;28;20066;-72
2023/05/03 07:02:02;;;;;;;9.75;3.83;;;;;;;;;;4997191;28;20033;-73
2023/05/03 07:04:29;;;;;;;7.15;2.85;;;;;;;;;;5001245;28;20018;-72
2023/05/03 07:06:55;;;;;;;4.82;2.25;;;;;;;;;;5001969;28;20482;-73
2023/05/03 07:09:21;;;;;;;8.23;2.50;;;;;;;;;;4997559;28;20484;-71
2023/05/03 07:11:49;;;;;;;7.20;2.25;;;;;;;;;;4997235;28;20038;-72
2023/05/03 07:14:16;;;;;;;6.68;1.80;;;;;;;;;;4997333;28;20030;-72
2023/05/03 07:16:42;;;;;;;5.93;2.08;;;;;;;;;;4998260;28;20061;-72
2023/05/03 07:19:08;;;;;;;7.47;1.83;;;;;;;;;;4998461;28;20092;-71
2023/05/03 07:21:34;;;;;;;4.88;1.75;;;;;;;;;;4995049;28;20022;-73
2023/05/03 07:24:01;;;;;;;4.78;1.88;;;;;;;;;;4996268;28;20026;-72
2023/05/03 07:26:27;;;;;;;6.07;1.70;;;;;;;;;;4999161;28;20502;-71
2023/05/03 07:28:53;;;;;;;5.53;1.63;;;;;;;;;;4993357;28;20026;-72
2023/05/03 07:31:23;;;;;;;6.53;1.85;;;;;;;;;;4997614;28;20755;-71
2023/05/03 07:33:50;;;;;;;6.57;1.95;;;;;;;;;;5000039;28;20049;-72
2023/05/03 07:36:16;;;;;;;9.45;2.75;;;;;;;;;;4998556;28;20511;-72
2023/05/03 07:38:42;;;;;;;7.30;4.32;;;;;;;;;;5003663;28;20572;-72
2023/05/03 07:41:09;;;;;;;8.50;7.03;;;;;;;;;;5003502;28;20044;-73
2023/05/03 07:43:35;;;;;;;13.88;8.02;;;;;;;;;;5002924;28;20030;-73
2023/05/03 07:46:02;;;;;;;10.70;7.72;;;;;;;;;;5002555;28;20398;-74
2023/05/03 07:48:28;;;;;;;9.23;4.82;;;;;;;;;;5001996;28;20117;-71
2023/05/03 07:50:54;;;;;;;11.50;7.80;;;;;;;;;;5000510;28;20105;-72
2023/05/03 07:53:20;;;;;;;10.73;5.45;;;;;;;;;;5003688;28;20513;-71
2023/05/03 07:55:47;;;;;;;6.90;4.10;;;;;;;;;;4999294;28;20036;-72
2023/05/03 07:58:13;;;;;;;5.70;2.78;;;;;;;;;;5005598;28;20382;-71
2023/05/03 08:00:39;;;;;;;7.20;3.00;;;;;;;;;;4996582;28;20041;-72
2023/05/03 08:03:05;;;;;;;6.20;2.80;;;;;;;;;;5002297;28;20411;-72
2023/05/03 08:05:34;;;;;;;8.93;5.75;;;;;;;;;;5001452;28;20033;-72
2023/05/03 08:08:02;;;;;;;4.63;2.50;;;;;;;;;;4998830;28;20030;-72
2023/05/03 08:10:29;;;;;;;5.97;3.03;;;;;;;;;;5000627;28;20032;-72
2023/05/03 08:12:55;;;;;;;7.60;4.10;;;;;;;;;;5002241;28;20045;-72
2023/05/03 08:15:21;;;;;;;8.35;7.10;;;;;;;;;;4998659;28;20017;-72
2023/05/03 08:17:48;;;;;;;7.85;4.40;;;;;;;;;;4998671;28;20032;-72
2023/05/03 08:20:15;;;;;;;7.05;2.63;;;;;;;;;;4996188;28;20081;-72
2023/05/03 08:22:44;;;;;;;7.18;2.53;;;;;;;;;;5001830;28;20088;-72
2023/05/03 08:25:11;;;;;;;6.00;2.35;;;;;;;;;;4998857;28;20506;-72
2023/05/03 08:27:38;;;;;;;5.90;2.13;;;;;;;;;;4995415;28;20018;-73
2023/05/03 08:30:05;;;;;;;6.13;1.83;;;;;;;;;;4996144;28;20052;-72
2023/05/03 08:32:31;;;;;;;6.43;2.35;;;;;;;;;;5001628;28;20036;-76
2023/05/03 08:34:57;;;;;;;4.47;1.83;;;;;;;;;;4992517;28;20042;-73
2023/05/03 08:37:24;;;;;;;8.60;2.30;;;;;;;;;;4998518;28;20030;-74
2023/05/03 08:39:51;;;;;;;7.97;2.10;;;;;;;;;;4995597;28;20049;-72
2023/05/03 08:42:17;;;;;;;6.20;1.70;;;;;;;;;;5000044;28;20115;-72
2023/05/03 08:44:47;;;;;;;7.97;2.30;;;;;;;;;;4998433;28;20026;-73
2023/05/03 08:47:15;;;;;;;6.38;2.10;;;;;;;;;;5004142;28;20113;-73
2023/05/03 08:49:42;;;;;;;5.10;1.88;;;;;;;;;;4999561;28;20372;-72
2023/05/03 08:52:10;;;;;;;6.13;1.85;;;;;;;;;;5004956;28;20041;-73
2023/05/03 08:54:36;;;;;;;5.28;1.85;;;;;;;;;;4994382;28;20018;-73
2023/05/03 08:57:03;;;;;;;8.32;1.83;;;;;;;;;;5001112;28;20084;-72
2023/05/03 08:59:29;;;;;;;12.30;2.45;;;;;;;;;;5000114;28;20273;-72
2023/05/03 09:01:55;;;;;;;4.38;1.73;;;;;;;;;;4997709;28;20026;-73
2023/05/03 09:04:32;;;;;;;4.40;1.80;;;;;;;;;;5000806;28;20026;-73
2023/05/03 09:07:11;;;;;;;5.95;2.20;;;;;;;;;;4998873;28;20034;-72
2023/05/03 09:09:38;;;;;;;6.63;2.15;;;;;;;;;;4999053;28;20101;-72
2023/05/03 09:12:04;;;;;;;4.57;1.85;;;;;;;;;;5003111;28;20038;-72
2023/05/03 09:14:31;;;;;;;5.88;1.90;;;;;;;;;;5001378;28;20030;-72
2023/05/03 09:17:12;;;;;;;7.90;1.88;;;;;;;;;;5002854;28;20036;-71
2023/05/03 09:19:55;;;;;;;4.35;1.70;;;;;;;;;;5002791;28;20018;-72
2023/05/03 09:22:23;;;;;;;6.38;2.75;;;;;;;;;;4999136;28;20029;-71
2023/05/03 09:24:53;;;;;;;6.95;2.65;;;;;;;;;;4998198;28;20053;-72
2023/05/03 09:27:22;;;;;;;13.55;7.80;;;;;;;;;;5001459;28;20032;-72
2023/05/03 09:29:49;;;;;;;7.30;2.75;;;;;;;;;;5000171;28;20030;-73
2023/05/03 09:32:15;;;;;;;6.80;2.15;;;;;;;;;;4999447;28;20113;-73
2023/05/03 09:34:42;;;;;;;6.15;1.80;;;;;;;;;;4991059;28;20530;-72
2023/05/03 09:37:09;;;;;;;8.13;1.95;;;;;;;;;;4997431;28;20034;-72
2023/05/03 09:39:38;;;;;;;4.20;1.88;;;;;;;;;;5000906;28;20072;-72
2023/05/03 09:42:11;;;;;;;5.00;2.38;;;;;;;;;;4996353;28;20470;-73
2023/05/03 09:44:55;;;;;;;4.35;2.45;;;;;;;;;;4998923;28;20029;-73
2023/05/03 09:47:24;;;;;;;4.70;2.58;;;;;;;;;;4995388;28;20109;-72
2023/05/03 09:49:50;;;;;;;5.68;2.03;;;;;;;;;;4994918;28;20022;-71
2023/05/03 09:52:16;;;;;;;5.72;2.42;;;;;;;;;;5001620;28;20084;-73
2023/05/03 09:54:43;;;;;;;7.13;2.03;;;;;;;;;;5000617;28;20418;-72
2023/05/03 09:57:09;;;;;;;3.15;1.90;;;;;;;;;;4997605;28;20085;-72
2023/05/03 09:59:36;;;;;;;5.63;2.22;;;;;;;;;;5003181;28;20101;-72
2023/05/03 10:02:04;;;;;;;4.97;1.90;;;;;;;;;;5001865;28;20033;-72
2023/05/03 10:04:58;;;;;;;5.70;2.70;;;;;;;;;;5003815;28;20025;-72
2023/05/03 10:07:25;;;;;;;9.70;2.60;;;;;;;;;;4995166;28;20034;-72
2023/05/03 10:09:52;;;;;;;3.45;2.03;;;;;;;;;;5000705;28;20052;-72
2023/05/03 10:12:18;;;;;;;5.75;2.20;;;;;;;;;;5001798;28;20044;-72
2023/05/03 10:14:46;;;;;;;7.57;2.15;;;;;;;;;;5003699;28;20072;-72
2023/05/03 10:17:12;;;;;;;7.50;2.30;;;;;;;;;;4998717;28;20109;-72
2023/05/03 10:19:47;;;;;;;6.60;2.20;;;;;;;;;;4994634;28;20568;-72
2023/05/03 10:22:13;;;;;;;5.80;2.72;;;;;;;;;;5000910;28;20616;-72
2023/05/03 10:24:59;;;;;;;8.57;5.30;;;;;;;;;;5003146;28;20018;-72
2023/05/03 10:27:26;;;;;;;6.72;3.53;;;;;;;;;;4999818;28;20022;-71
2023/05/03 10:29:53;;;;;;;9.60;6.28;;;;;;;;;;5002052;28;20029;-71
2023/05/03 10:32:28;;;;;;;9.60;6.93;;;;;;;;;;4996608;28;20030;-72
2023/05/03 10:35:02;;;;;;;9.77;6.63;;;;;;;;;;4995888;28;20018;-71
2023/05/03 10:37:30;;;;;;;12.98;7.55;;;;;;;;;;4998872;28;20022;-72
2023/05/03 10:39:56;;;;;;;8.63;6.03;;;;;;;;;;4996977;28;20026;-72
2023/05/03 10:42:25;;;;;;;4.35;3.42;;;;;;;;;;4995277;28;20090;-72
2023/05/03 10:44:51;;;;;;;5.78;2.83;;;;;;;;;;4991182;28;20022;-71
2023/05/03 10:47:18;;;;;;;6.72;2.80;;;;;;;;;;4998409;28;20030;-72
2023/05/03 10:49:45;;;;;;;5.10;3.08;;;;;;;;;;4997805;28;20119;-72
2023/05/03 10:52:30;;;;;;;4.65;4.18;;;;;;;;;;4990290;28;20026;-72
2023/05/03 10:54:56;;;;;;;6.60;3.85;;;;;;;;;;4988872;28;20024;-72
2023/05/03 10:57:26;;;;;;;10.35;5.35;;;;;;;;;;5001845;28;20620;-71
2023/05/03 10:59:53;;;;;;;9.73;6.47;;;;;;;;;;5002617;28;20050;-73
2023/05/03 11:02:21;;;;;;;6.88;4.72;;;;;;;;;;5004854;28;20029;-72
2023/05/03 11:04:49;;;;;;;8.02;4.85;;;;;;;;;;5000870;28;20030;-72
2023/05/03 11:07:21;;;;;;;5.80;3.30;;;;;;;;;;4996313;28;20026;-72
2023/05/03 11:09:47;;;;;;;6.60;3.95;;;;;;;;;;4988510;28;20414;-72
2023/05/03 11:12:13;;;;;;;8.13;3.38;;;;;;;;;;5005731;28;20085;-72
2023/05/03 11:14:41;;;;;;;7.65;3.13;;;;;;;;;;5005446;28;20153;-73
2023/05/03 11:17:08;;;;;;;10.52;5.15;;;;;;;;;;4998603;28;20040;-72
2023/05/03 11:19:34;;;;;;;8.82;6.13;;;;;;;;;;5002403;28;20452;-73
2023/05/03 11:22:01;;;;;;;5.85;3.35;;;;;;;;;;5002510;28;20026;-72
2023/05/03 11:24:27;;;;;;;8.48;5.60;;;;;;;;;;5000165;28;20030;-72
2023/05/03 11:26:53;;;;;;;7.00;4.88;;;;;;;;;;5006923;28;20022;-72
2023/05/03 11:29:20;;;;;;;5.82;4.60;;;;;;;;;;5000704;28;20025;-72
2023/05/03 11:31:46;;;;;;;7.28;4.38;;;;;;;;;;5001802;28;20034;-72
2023/05/03 11:34:14;;;;;;;8.68;4.50;;;;;;;;;;5006125;28;20458;-72
2023/05/03 11:36:41;;;;;;;5.53;4.32;;;;;;;;;;4997089;28;20026;-72
2023/05/03 11:39:08;;;;;;;8.27;4.90;;;;;;;;;;5005164;28;20037;-72
2023/05/03 11:41:34;;;;;;;9.05;5.18;;;;;;;;;;4995913;28;20030;-72
2023/05/03 11:44:01;;;;;;;7.65;5.95;;;;;;;;;;5005603;28;20058;-72
2023/05/03 11:46:28;;;;;;;7.72;5.63;;;;;;;;;;5000379;28;20032;-72
2023/05/03 11:48:54;;;;;;;12.15;6.70;;;;;;;;;;5000323;28;20025;-72
2023/05/03 11:51:22;;;;;;;11.32;6.43;;;;;;;;;;5004049;28;20025;-72
2023/05/03 11:53:48;;;;;;;8.43;5.45;;;;;;;;;;5003342;28;20038;-72
2023/05/03 11:56:17;;;;;;;9.88;5.93;;;;;;;;;;5005644;28;20048;-72
2023/05/03 11:58:56;;;;;;;6.40;4.20;;;;;;;;;;5002925;28;20521;-71
2023/05/03 12:01:25;;;;;;;7.60;4.97;;;;;;;;;;4982523;28;20034;-72
2023/05/03 12:03:56;;;;;;;10.70;6.30;;;;;;;;;;4986853;28;20065;-72
2023/05/03 12:06:22;;;;;;;9.05;5.60;;;;;;;;;;4982666;28;20038;-72
2023/05/03 12:08:49;;;;;;;8.38;4.47;;;;;;;;;;4986516;28;20054;-72
2023/05/03 12:11:15;;;;;;;9.07;3.35;;;;;;;;;;4969551;28;20022;-72
2023/05/03 12:13:42;;;;;;;5.43;3.70;;;;;;;;;;4981455;28;20456;-72
2023/05/03 12:16:09;;;;;;;6.47;3.00;;;;;;;;;;4974764;28;20103;-72
2023/05/03 12:18:51;;;;;;;4.82;2.38;;;;;;;;;;4981571;28;20022;-71
2023/05/03 12:21:18;;;;;;;3.70;2.35;;;;;;;;;;4982977;28;20026;-73
2023/05/03 12:23:45;;;;;;;4.55;2.13;;;;;;;;;;4982969;28;20039;-72
2023/05/03 12:26:13;;;;;;;7.28;2.60;;;;;;;;;;4981990;28;20021;-73
2023/05/03 12:28:39;;;;;;;4.88;2.30;;;;;;;;;;4986843;28;20033;-71
2023/05/03 12:31:05;;;;;;;5.93;2.35;;;;;;;;;;4974145;28;20537;-72
2023/05/03 12:33:32;;;;;;;4.57;2.17;;;;;;;;;;4977585;28;20069;-72
2023/05/03 12:35:58;;;;;;;6.57;2.30;;;;;;;;;;4973192;28;20027;-73
2023/05/03 12:38:25;;;;;;;7.63;2.92;;;;;;;;;;4987166;28;20121;-72
2023/05/03 12:40:52;;;;;;;7.80;2.50;;;;;;;;;;4961697;28;20019;-72
2023/05/03 12:43:18;;;;;;;4.93;2.28;;;;;;;;;;4980837;28;20113;-73
2023/05/03 12:45:44;;;;;;;5.30;2.33;;;;;;;;;;4981095;28;20026;-72
2023/05/03 12:48:11;;;;;;;5.15;2.58;;;;;;;;;;4984553;28;20073;-72
2023/05/03 12:50:38;;;;;;;4.20;2.05;;;;;;;;;;4984217;28;20100;-71
2023/05/03 12:53:04;;;;;;;5.45;2.75;;;;;;;;;;4977038;28;20038;-73
2023/05/03 12:55:33;;;;;;;5.15;2.17;;;;;;;;;;4980532;28;20080;-73
2023/05/03 12:58:00;;;;;;;4.57;2.20;;;;;;;;;;4981697;28;20050;-71
2023/05/03 13:00:26;;;;;;;5.38;2.70;;;;;;;;;;4998541;28;20116;-74
2023/05/03 13:02:54;;;;;;;6.93;2.42;;;;;;;;;;5005857;28;20026;-75
2023/05/03 13:05:20;;;;;;;3.75;2.25;;;;;;;;;;5001376;28;20049;-75
2023/05/03 13:07:47;;;;;;;6.90;2.38;;;;;;;;;;5006521;28;20030;-74
2023/05/03 13:10:13;;;;;;;5.85;2.35;;;;;;;;;;4998189;28;20037;-73
2023/05/03 13:12:39;;;;;;;6.35;2.63;;;;;;;;;;5008528;28;20485;-74
2023/05/03 13:15:06;;;;;;;5.80;2.20;;;;;;;;;;5002350;28;20030;-74
2023/05/03 13:17:32;;;;;;;5.32;2.30;;;;;;;;;;5006623;28;20026;-73
2023/05/03 13:19:59;;;;;;;3.33;2.20;;;;;;;;;;4993181;28;20029;-73
2023/05/03 13:22:25;;;;;;;5.90;2.42;;;;;;;;;;5001906;28;20032;-74
2023/05/03 13:24:51;;;;;;;7.03;3.17;;;;;;;;;;4998906;28;20113;-73
2023/05/03 13:27:18;;;;;;;5.13;2.60;;;;;;;;;;5003515;28;20065;-74
2023/05/03 13:29:44;;;;;;;5.30;2.53;;;;;;;;;;4998143;28;20092;-74
2023/05/03 13:32:11;;;;;;;5.63;2.50;;;;;;;;;;4999699;28;20026;-74
2023/05/03 13:34:37;;;;;;;5.90;2.60;;;;;;;;;;4994928;28;20034;-74
2023/05/03 13:37:04;;;;;;;6.18;2.75;;;;;;;;;;5001021;28;20110;-74
2023/05/03 13:39:31;;;;;;;9.85;2.90;;;;;;;;;;4992265;28;20705;-74
2023/05/03 13:41:57;;;;;;;3.53;2.45;;;;;;;;;;4995418;28;20034;-73
2023/05/03 13:44:26;;;;;;;7.82;3.05;;;;;;;;;;5003392;28;20030;-74
2023/05/03 13:46:52;;;;;;;5.38;3.38;;;;;;;;;;4999608;28;20022;-74
2023/05/03 13:49:19;;;;;;;5.28;4.15;;;;;;;;;;4983789;28;20371;-73
2023/05/03 13:51:45;;;;;;;6.60;4.18;;;;;;;;;;5003652;28;20154;-72
2023/05/03 13:54:11;;;;;;;8.45;2.83;;;;;;;;;;5003815;28;20053;-73
2023/05/03 13:56:37;;;;;;;5.35;2.90;;;;;;;;;;4999962;28;20823;-73
2023/05/03 13:59:06;;;;;;;4.07;2.80;;;;;;;;;;4999251;28;20026;-74
2023/05/03 14:01:32;;;;;;;7.90;4.20;;;;;;;;;;4999030;28;20045;-74
2023/05/03 14:04:12;;;;;;;9.10;3.28;;;;;;;;;;5096540;27;20914;-75
2023/05/03 14:06:39;;;;;;;9.45;4.32;;;;;;;;;;5079886;28;20044;-73
2023/05/03 14:09:06;;;;;;;10.40;4.72;;;;;;;;;;5074093;28;20224;-72
2023/05/03 14:11:32;;;;;;;10.88;6.07;;;;;;;;;;5074400;28;20614;-71
2023/05/03 14:13:58;;;;;;;11.45;6.32;;;;;;;;;;5077927;28;20051;-72
2023/05/03 14:16:25;;;;;;;12.65;7.90;;;;;;;;;;5074467;28;20074;-74
2023/05/03 14:18:52;;;;;;;12.75;7.70;;;;;;;;;;5072627;28;20070;-75
2023/05/03 14:21:18;;;;;;;17.55;6.60;;;;;;;;;;5075005;28;20024;-73
2023/05/03 14:23:45;;;;;;;13.70;9.05;;;;;;;;;;5071282;28;20032;-72
2023/05/03 14:26:12;;;;;;;12.80;8.98;;;;;;;;;;5070188;28;20389;-72
2023/05/03 14:28:38;;;;;;;12.80;8.77;;;;;;;;;;5077454;28;20111;-72
2023/05/03 14:31:05;;;;;;;10.80;7.75;;;;;;;;;;5072072;28;20143;-74
2023/05/03 14:33:32;;;;;;;11.55;7.60;;;;;;;;;;5076778;28;20078;-73
2023/05/03 14:35:58;;;;;;;10.98;7.57;;;;;;;;;;5071580;28;20024;-73
2023/05/03 14:38:24;;;;;;;10.63;6.90;;;;;;;;;;5069934;28;20515;-72
2023/05/03 14:40:53;;;;;;;4.43;4.00;;;;;;;;;;5075423;28;20589;-73